METAR Data
IDs: Format: Raw Decoded Include TAF

Data at: 2127 UTC 01 Dec 2021

METAR for:KMNN (Marion Muni, OH, US)
Text:KMNN 012053Z AUTO 16010KT 3SM -RA BR OVC055 06/04 A2990 RMK AO2 SLP135 P0004 60004 T00560039 58035 $
Temperature: 5.6°C ( 42°F)
Dewpoint: 3.9°C ( 39°F) [RH = 89%]
Pressure (altimeter):29.90 inches Hg (1012.6 mb) [Sea level pressure: 1013.5 mb]
Winds:from the SSE (160 degrees) at 12 MPH (10 knots; 5.1 m/s)
Visibility: 3 sm ( 5 km)
Ceiling:5500 feet AGL
Clouds: overcast cloud deck at 5500 feet AGL
Weather:-RA BR (light rain, mist)
QC Flag:automated observation with no human augmentation; SOME DATA ABOVE MAY BE INACCURATE!!!"$" is an indication the sensor requires maintenance.